sensor_id;sensor_type;location;lat;lon;timestamp;P1;P2;P0
41382;PMS5003;27971;53.902;9.118;2022-12-07T00:05:36;15.46;13.67;
41382;PMS5003;27971;53.902;9.118;2022-12-07T00:07:39;13.98;12.96;
41382;PMS5003;27971;53.902;9.118;2022-12-07T00:09:43;15.67;14.13;
41382;PMS5003;27971;53.902;9.118;2022-12-07T00:11:48;14.24;12.61;
41382;PMS5003;27971;53.902;9.118;2022-12-07T00:13:51;12.8;12.26;
41382;PMS5003;27971;53.902;9.118;2022-12-07T00:15:51;12.64;11.26;
41382;PMS5003;27971;53.902;9.118;2022-12-07T00:17:54;14.94;13.2;
41382;PMS5003;27971;53.902;9.118;2022-12-07T00:19:56;14.29;12.68;
41382;PMS5003;27971;53.902;9.118;2022-12-07T00:21:59;13.81;12.66;
41382;PMS5003;27971;53.902;9.118;2022-12-07T00:24:03;13.63;11.89;
41382;PMS5003;27971;53.902;9.118;2022-12-07T00:26:05;12.52;10.93;
41382;PMS5003;27971;53.902;9.118;2022-12-07T00:28:08;12.78;10.55;
41382;PMS5003;27971;53.902;9.118;2022-12-07T00:30:10;14.92;12.85;
41382;PMS5003;27971;53.902;9.118;2022-12-07T00:32:13;16.21;13.87;
41382;PMS5003;27971;53.902;9.118;2022-12-07T00:34:17;12.9;11.8;
41382;PMS5003;27971;53.902;9.118;2022-12-07T00:36:19;11.04;10.11;
41382;PMS5003;27971;53.902;9.118;2022-12-07T00:38:22;12.48;11.28;
41382;PMS5003;27971;53.902;9.118;2022-12-07T00:40:24;13.57;11.87;
41382;PMS5003;27971;53.902;9.118;2022-12-07T00:42:27;13.93;12.77;
41382;PMS5003;27971;53.902;9.118;2022-12-07T00:44:30;13.42;12.15;
41382;PMS5003;27971;53.902;9.118;2022-12-07T00:46:32;11.51;9.96;
41382;PMS5003;27971;53.902;9.118;2022-12-07T00:48:35;13.19;10.62;
41382;PMS5003;27971;53.902;9.118;2022-12-07T00:50:39;12.89;11.06;
41382;PMS5003;27971;53.902;9.118;2022-12-07T00:52:41;13.65;12.55;
41382;PMS5003;27971;53.902;9.118;2022-12-07T00:54:44;11.65;10.68;
41382;PMS5003;27971;53.902;9.118;2022-12-07T00:56:46;12.35;11.21;
41382;PMS5003;27971;53.902;9.118;2022-12-07T00:58:49;12.65;11.11;
41382;PMS5003;27971;53.902;9.118;2022-12-07T01:00:52;13.76;12.43;
41382;PMS5003;27971;53.902;9.118;2022-12-07T01:02:55;12.61;10.71;
41382;PMS5003;27971;53.902;9.118;2022-12-07T01:04:57;14.85;12.06;
41382;PMS5003;27971;53.902;9.118;2022-12-07T01:07:00;12.05;10.93;
41382;PMS5003;27971;53.902;9.118;2022-12-07T01:09:02;12.0;11.19;
41382;PMS5003;27971;53.902;9.118;2022-12-07T01:11:06;12.13;10.93;
41382;PMS5003;27971;53.902;9.118;2022-12-07T01:13:08;12.7;10.96;
41382;PMS5003;27971;53.902;9.118;2022-12-07T01:15:10;12.14;11.21;
41382;PMS5003;27971;53.902;9.118;2022-12-07T01:17:13;11.12;9.3;
41382;PMS5003;27971;53.902;9.118;2022-12-07T01:19:16;12.31;10.63;
41382;PMS5003;27971;53.902;9.118;2022-12-07T01:21:19;14.04;11.8;
41382;PMS5003;27971;53.902;9.118;2022-12-07T01:23:22;11.17;9.8;
41382;PMS5003;27971;53.902;9.118;2022-12-07T01:25:24;11.08;9.96;
41382;PMS5003;27971;53.902;9.118;2022-12-07T01:27:28;10.41;9.6;
41382;PMS5003;27971;53.902;9.118;2022-12-07T01:29:31;12.43;11.13;
41382;PMS5003;27971;53.902;9.118;2022-12-07T01:31:33;11.31;9.31;
41382;PMS5003;27971;53.902;9.118;2022-12-07T01:33:36;10.95;9.69;
41382;PMS5003;27971;53.902;9.118;2022-12-07T01:35:39;11.85;9.92;
41382;PMS5003;27971;53.902;9.118;2022-12-07T01:37:43;10.94;10.33;
41382;PMS5003;27971;53.902;9.118;2022-12-07T01:39:47;11.33;10.44;
41382;PMS5003;27971;53.902;9.118;2022-12-07T01:41:49;12.39;10.5;
41382;PMS5003;27971;53.902;9.118;2022-12-07T01:44:23;11.45;10.31;
41382;PMS5003;27971;53.902;9.118;2022-12-07T01:45:54;13.27;11.67;
41382;PMS5003;27971;53.902;9.118;2022-12-07T01:47:57;9.44;9.17;
41382;PMS5003;27971;53.902;9.118;2022-12-07T01:50:00;12.06;10.82;
41382;PMS5003;27971;53.902;9.118;2022-12-07T01:52:07;11.35;9.65;
41382;PMS5003;27971;53.902;9.118;2022-12-07T01:54:05;12.64;11.19;
41382;PMS5003;27971;53.902;9.118;2022-12-07T01:56:08;11.37;10.43;
41382;PMS5003;27971;53.902;9.118;2022-12-07T01:58:10;11.59;10.28;
41382;PMS5003;27971;53.902;9.118;2022-12-07T02:00:13;11.27;10.36;
41382;PMS5003;27971;53.902;9.118;2022-12-07T02:02:17;12.36;10.63;
41382;PMS5003;27971;53.902;9.118;2022-12-07T02:04:17;13.04;11.65;
41382;PMS5003;27971;53.902;9.118;2022-12-07T02:06:22;10.88;9.26;
41382;PMS5003;27971;53.902;9.118;2022-12-07T02:08:24;10.63;9.29;
41382;PMS5003;27971;53.902;9.118;2022-12-07T02:10:28;11.11;10.11;
41382;PMS5003;27971;53.902;9.118;2022-12-07T02:12:30;11.05;10.04;
41382;PMS5003;27971;53.902;9.118;2022-12-07T02:14:33;11.69;9.73;
41382;PMS5003;27971;53.902;9.118;2022-12-07T02:16:38;11.31;10.4;
41382;PMS5003;27971;53.902;9.118;2022-12-07T02:18:44;11.04;9.94;
41382;PMS5003;27971;53.902;9.118;2022-12-07T02:20:42;10.89;8.86;
41382;PMS5003;27971;53.902;9.118;2022-12-07T02:22:51;10.76;8.75;
41382;PMS5003;27971;53.902;9.118;2022-12-07T02:24:48;10.9;9.29;
41382;PMS5003;27971;53.902;9.118;2022-12-07T02:27:11;10.84;9.39;
41382;PMS5003;27971;53.902;9.118;2022-12-07T02:29:00;9.33;7.1;
41382;PMS5003;27971;53.902;9.118;2022-12-07T02:30:55;10.94;9.56;
41382;PMS5003;27971;53.902;9.118;2022-12-07T02:32:59;11.3;9.12;
41382;PMS5003;27971;53.902;9.118;2022-12-07T02:35:03;10.44;8.94;
41382;PMS5003;27971;53.902;9.118;2022-12-07T02:37:08;10.52;10.01;
41382;PMS5003;27971;53.902;9.118;2022-12-07T02:39:09;9.46;8.82;
41382;PMS5003;27971;53.902;9.118;2022-12-07T02:41:12;9.03;8.58;
41382;PMS5003;27971;53.902;9.118;2022-12-07T02:43:16;10.96;9.56;
41382;PMS5003;27971;53.902;9.118;2022-12-07T02:45:17;11.59;10.03;
41382;PMS5003;27971;53.902;9.118;2022-12-07T02:47:19;10.07;9.12;
41382;PMS5003;27971;53.902;9.118;2022-12-07T02:49:22;10.98;9.52;
41382;PMS5003;27971;53.902;9.118;2022-12-07T02:51:26;11.41;9.51;
41382;PMS5003;27971;53.902;9.118;2022-12-07T02:53:28;10.67;9.3;
41382;PMS5003;27971;53.902;9.118;2022-12-07T02:55:33;11.22;9.59;
41382;PMS5003;27971;53.902;9.118;2022-12-07T02:57:38;11.46;9.71;
41382;PMS5003;27971;53.902;9.118;2022-12-07T02:59:39;8.49;8.32;
41382;PMS5003;27971;53.902;9.118;2022-12-07T03:01:41;7.88;7.61;
41382;PMS5003;27971;53.902;9.118;2022-12-07T03:03:43;9.56;8.43;
41382;PMS5003;27971;53.902;9.118;2022-12-07T03:05:54;10.71;9.04;
41382;PMS5003;27971;53.902;9.118;2022-12-07T03:07:49;10.32;8.54;
41382;PMS5003;27971;53.902;9.118;2022-12-07T03:09:51;10.22;9.09;
41382;PMS5003;27971;53.902;9.118;2022-12-07T03:11:55;11.91;9.31;
41382;PMS5003;27971;53.902;9.118;2022-12-07T03:13:58;9.34;8.72;
41382;PMS5003;27971;53.902;9.118;2022-12-07T03:16:01;11.49;9.62;
41382;PMS5003;27971;53.902;9.118;2022-12-07T03:18:01;11.09;9.66;
41382;PMS5003;27971;53.902;9.118;2022-12-07T03:20:05;9.66;9.02;
41382;PMS5003;27971;53.902;9.118;2022-12-07T03:22:09;12.31;10.11;
41382;PMS5003;27971;53.902;9.118;2022-12-07T03:24:11;9.44;8.6;
41382;PMS5003;27971;53.902;9.118;2022-12-07T03:26:13;10.57;9.33;
41382;PMS5003;27971;53.902;9.118;2022-12-07T03:28:17;10.56;9.46;
41382;PMS5003;27971;53.902;9.118;2022-12-07T03:30:20;9.83;7.43;
41382;PMS5003;27971;53.902;9.118;2022-12-07T03:32:24;10.61;9.6;
41382;PMS5003;27971;53.902;9.118;2022-12-07T03:34:26;8.72;7.56;
41382;PMS5003;27971;53.902;9.118;2022-12-07T03:36:30;9.93;8.38;
41382;PMS5003;27971;53.902;9.118;2022-12-07T03:38:32;11.39;9.22;
41382;PMS5003;27971;53.902;9.118;2022-12-07T03:40:37;10.31;8.8;
41382;PMS5003;27971;53.902;9.118;2022-12-07T03:42:38;9.7;9.02;
41382;PMS5003;27971;53.902;9.118;2022-12-07T03:44:40;9.43;8.67;
41382;PMS5003;27971;53.902;9.118;2022-12-07T03:46:44;10.67;8.93;
41382;PMS5003;27971;53.902;9.118;2022-12-07T03:48:49;10.2;8.98;
41382;PMS5003;27971;53.902;9.118;2022-12-07T03:50:50;9.96;8.4;
41382;PMS5003;27971;53.902;9.118;2022-12-07T03:52:53;9.04;8.01;
41382;PMS5003;27971;53.902;9.118;2022-12-07T03:54:56;9.26;8.26;
41382;PMS5003;27971;53.902;9.118;2022-12-07T03:56:59;10.81;8.57;
41382;PMS5003;27971;53.902;9.118;2022-12-07T03:59:01;10.87;8.75;
41382;PMS5003;27971;53.902;9.118;2022-12-07T04:01:04;8.31;7.95;
41382;PMS5003;27971;53.902;9.118;2022-12-07T04:03:07;8.49;7.79;
41382;PMS5003;27971;53.902;9.118;2022-12-07T04:05:10;9.08;8.3;
41382;PMS5003;27971;53.902;9.118;2022-12-07T04:07:13;11.08;9.25;
41382;PMS5003;27971;53.902;9.118;2022-12-07T04:09:16;10.46;8.44;
41382;PMS5003;27971;53.902;9.118;2022-12-07T04:11:19;8.19;7.08;
41382;PMS5003;27971;53.902;9.118;2022-12-07T04:13:22;9.69;9.1;
41382;PMS5003;27971;53.902;9.118;2022-12-07T04:15:25;10.82;9.1;
41382;PMS5003;27971;53.902;9.118;2022-12-07T04:17:28;8.6;7.77;
41382;PMS5003;27971;53.902;9.118;2022-12-07T04:19:31;8.98;7.94;
41382;PMS5003;27971;53.902;9.118;2022-12-07T04:21:34;8.63;7.77;
41382;PMS5003;27971;53.902;9.118;2022-12-07T04:23:37;7.68;7.25;
41382;PMS5003;27971;53.902;9.118;2022-12-07T04:25:40;8.58;7.48;
41382;PMS5003;27971;53.902;9.118;2022-12-07T04:27:43;8.45;7.39;
41382;PMS5003;27971;53.902;9.118;2022-12-07T04:29:46;7.35;7.02;
41382;PMS5003;27971;53.902;9.118;2022-12-07T04:31:49;8.06;6.77;
41382;PMS5003;27971;53.902;9.118;2022-12-07T04:33:52;8.76;7.83;
41382;PMS5003;27971;53.902;9.118;2022-12-07T04:35:54;10.04;8.46;
41382;PMS5003;27971;53.902;9.118;2022-12-07T04:37:57;8.49;7.3;
41382;PMS5003;27971;53.902;9.118;2022-12-07T04:40:00;11.0;8.62;
41382;PMS5003;27971;53.902;9.118;2022-12-07T04:42:03;9.24;8.11;
41382;PMS5003;27971;53.902;9.118;2022-12-07T04:44:06;8.57;7.62;
41382;PMS5003;27971;53.902;9.118;2022-12-07T04:46:10;10.83;8.58;
41382;PMS5003;27971;53.902;9.118;2022-12-07T04:48:13;8.96;8.11;
41382;PMS5003;27971;53.902;9.118;2022-12-07T04:50:16;8.89;7.21;
41382;PMS5003;27971;53.902;9.118;2022-12-07T04:52:19;7.65;7.04;
41382;PMS5003;27971;53.902;9.118;2022-12-07T04:54:22;8.82;7.6;
41382;PMS5003;27971;53.902;9.118;2022-12-07T04:56:25;8.37;7.61;
41382;PMS5003;27971;53.902;9.118;2022-12-07T04:58:28;7.1;6.4;
41382;PMS5003;27971;53.902;9.118;2022-12-07T05:00:31;6.13;5.79;
41382;PMS5003;27971;53.902;9.118;2022-12-07T05:02:34;8.67;7.61;
41382;PMS5003;27971;53.902;9.118;2022-12-07T05:04:37;7.21;6.71;
41382;PMS5003;27971;53.902;9.118;2022-12-07T05:06:41;8.87;7.89;
41382;PMS5003;27971;53.902;9.118;2022-12-07T05:08:44;7.67;7.17;
41382;PMS5003;27971;53.902;9.118;2022-12-07T05:10:48;7.18;6.77;
41382;PMS5003;27971;53.902;9.118;2022-12-07T05:12:50;10.84;9.95;
41382;PMS5003;27971;53.902;9.118;2022-12-07T05:14:53;8.26;7.55;
41382;PMS5003;27971;53.902;9.118;2022-12-07T05:16:56;8.19;6.36;
41382;PMS5003;27971;53.902;9.118;2022-12-07T05:18:59;7.8;6.74;
41382;PMS5003;27971;53.902;9.118;2022-12-07T05:21:02;7.49;6.29;
41382;PMS5003;27971;53.902;9.118;2022-12-07T05:23:05;8.29;6.39;
41382;PMS5003;27971;53.902;9.118;2022-12-07T05:25:09;7.89;7.04;
41382;PMS5003;27971;53.902;9.118;2022-12-07T05:27:12;8.5;7.5;
41382;PMS5003;27971;53.902;9.118;2022-12-07T05:29:16;7.96;6.73;
41382;PMS5003;27971;53.902;9.118;2022-12-07T05:31:18;7.89;6.29;
41382;PMS5003;27971;53.902;9.118;2022-12-07T05:33:21;9.31;7.93;
41382;PMS5003;27971;53.902;9.118;2022-12-07T05:35:24;7.58;6.65;
41382;PMS5003;27971;53.902;9.118;2022-12-07T05:37:26;8.51;6.6;
41382;PMS5003;27971;53.902;9.118;2022-12-07T05:39:29;7.59;7.17;
41382;PMS5003;27971;53.902;9.118;2022-12-07T05:41:31;8.09;6.49;
41382;PMS5003;27971;53.902;9.118;2022-12-07T05:43:33;6.84;6.23;
41382;PMS5003;27971;53.902;9.118;2022-12-07T05:45:35;7.66;6.4;
41382;PMS5003;27971;53.902;9.118;2022-12-07T05:47:38;9.36;8.53;
41382;PMS5003;27971;53.902;9.118;2022-12-07T05:49:40;8.67;6.83;
41382;PMS5003;27971;53.902;9.118;2022-12-07T05:51:43;7.26;6.24;
41382;PMS5003;27971;53.902;9.118;2022-12-07T05:53:45;7.83;6.48;
41382;PMS5003;27971;53.902;9.118;2022-12-07T05:55:48;7.22;6.6;
41382;PMS5003;27971;53.902;9.118;2022-12-07T05:57:51;8.85;7.56;
41382;PMS5003;27971;53.902;9.118;2022-12-07T05:59:54;7.24;6.56;
41382;PMS5003;27971;53.902;9.118;2022-12-07T06:01:57;6.99;6.39;
41382;PMS5003;27971;53.902;9.118;2022-12-07T06:03:59;6.62;6.1;
41382;PMS5003;27971;53.902;9.118;2022-12-07T06:06:02;7.63;6.91;
41382;PMS5003;27971;53.902;9.118;2022-12-07T06:08:05;7.23;6.77;
41382;PMS5003;27971;53.902;9.118;2022-12-07T06:10:07;6.98;6.44;
41382;PMS5003;27971;53.902;9.118;2022-12-07T06:12:11;7.98;6.59;
41382;PMS5003;27971;53.902;9.118;2022-12-07T06:14:13;7.04;6.13;
41382;PMS5003;27971;53.902;9.118;2022-12-07T06:16:15;7.32;6.62;
41382;PMS5003;27971;53.902;9.118;2022-12-07T06:18:18;7.93;6.61;
41382;PMS5003;27971;53.902;9.118;2022-12-07T06:20:20;6.19;5.78;
41382;PMS5003;27971;53.902;9.118;2022-12-07T06:22:22;6.13;5.43;
41382;PMS5003;27971;53.902;9.118;2022-12-07T06:24:25;5.91;5.69;
41382;PMS5003;27971;53.902;9.118;2022-12-07T06:26:27;7.71;6.38;
41382;PMS5003;27971;53.902;9.118;2022-12-07T06:28:29;6.92;6.41;
41382;PMS5003;27971;53.902;9.118;2022-12-07T06:30:33;5.99;5.09;
41382;PMS5003;27971;53.902;9.118;2022-12-07T06:32:36;7.04;5.49;
41382;PMS5003;27971;53.902;9.118;2022-12-07T06:34:37;7.24;6.45;
41382;PMS5003;27971;53.902;9.118;2022-12-07T06:36:40;7.22;6.6;
41382;PMS5003;27971;53.902;9.118;2022-12-07T06:38:43;5.91;5.52;
41382;PMS5003;27971;53.902;9.118;2022-12-07T06:40:45;6.41;5.63;
41382;PMS5003;27971;53.902;9.118;2022-12-07T06:42:47;7.13;6.54;
41382;PMS5003;27971;53.902;9.118;2022-12-07T06:44:50;7.14;6.0;
41382;PMS5003;27971;53.902;9.118;2022-12-07T06:46:52;6.94;5.78;
41382;PMS5003;27971;53.902;9.118;2022-12-07T06:48:54;6.98;6.12;
41382;PMS5003;27971;53.902;9.118;2022-12-07T06:50:56;6.31;5.7;
41382;PMS5003;27971;53.902;9.118;2022-12-07T06:52:59;8.53;6.13;
41382;PMS5003;27971;53.902;9.118;2022-12-07T06:55:02;7.96;7.19;
41382;PMS5003;27971;53.902;9.118;2022-12-07T06:57:04;6.16;5.26;
41382;PMS5003;27971;53.902;9.118;2022-12-07T06:59:07;8.31;6.89;
41382;PMS5003;27971;53.902;9.118;2022-12-07T07:01:10;6.44;5.64;
41382;PMS5003;27971;53.902;9.118;2022-12-07T07:03:12;4.84;4.54;
41382;PMS5003;27971;53.902;9.118;2022-12-07T07:05:15;5.89;5.15;
41382;PMS5003;27971;53.902;9.118;2022-12-07T07:07:18;5.53;5.23;
41382;PMS5003;27971;53.902;9.118;2022-12-07T07:09:21;6.08;5.51;
41382;PMS5003;27971;53.902;9.118;2022-12-07T07:11:23;6.52;5.51;
41382;PMS5003;27971;53.902;9.118;2022-12-07T07:13:25;6.43;5.69;
41382;PMS5003;27971;53.902;9.118;2022-12-07T07:15:28;5.92;5.47;
41382;PMS5003;27971;53.902;9.118;2022-12-07T07:17:30;5.12;4.79;
41382;PMS5003;27971;53.902;9.118;2022-12-07T07:19:33;5.71;5.2;
41382;PMS5003;27971;53.902;9.118;2022-12-07T07:21:35;5.82;5.13;
41382;PMS5003;27971;53.902;9.118;2022-12-07T07:23:37;6.69;6.17;
41382;PMS5003;27971;53.902;9.118;2022-12-07T07:25:39;5.68;5.11;
41382;PMS5003;27971;53.902;9.118;2022-12-07T07:27:42;7.29;5.99;
41382;PMS5003;27971;53.902;9.118;2022-12-07T07:29:44;5.93;5.73;
41382;PMS5003;27971;53.902;9.118;2022-12-07T07:31:46;5.47;5.17;
41382;PMS5003;27971;53.902;9.118;2022-12-07T07:33:48;5.54;5.21;
41382;PMS5003;27971;53.902;9.118;2022-12-07T07:35:51;5.5;4.74;
41382;PMS5003;27971;53.902;9.118;2022-12-07T07:37:53;5.9;5.1;
41382;PMS5003;27971;53.902;9.118;2022-12-07T07:39:55;6.22;5.36;
41382;PMS5003;27971;53.902;9.118;2022-12-07T07:41:58;5.35;4.69;
41382;PMS5003;27971;53.902;9.118;2022-12-07T07:44:01;5.61;5.07;
41382;PMS5003;27971;53.902;9.118;2022-12-07T07:46:03;6.7;5.81;
41382;PMS5003;27971;53.902;9.118;2022-12-07T07:48:06;5.78;5.01;
41382;PMS5003;27971;53.902;9.118;2022-12-07T07:50:09;4.97;4.03;
41382;PMS5003;27971;53.902;9.118;2022-12-07T07:52:11;6.19;5.79;
41382;PMS5003;27971;53.902;9.118;2022-12-07T07:54:14;4.8;4.6;
41382;PMS5003;27971;53.902;9.118;2022-12-07T07:56:16;5.73;5.49;
41382;PMS5003;27971;53.902;9.118;2022-12-07T07:58:18;6.0;5.28;
41382;PMS5003;27971;53.902;9.118;2022-12-07T08:00:21;6.06;5.72;
41382;PMS5003;27971;53.902;9.118;2022-12-07T08:02:23;6.33;5.75;
41382;PMS5003;27971;53.902;9.118;2022-12-07T08:04:25;6.96;6.16;
41382;PMS5003;27971;53.902;9.118;2022-12-07T08:06:29;6.68;6.19;
41382;PMS5003;27971;53.902;9.118;2022-12-07T08:08:31;4.72;3.91;
41382;PMS5003;27971;53.902;9.118;2022-12-07T08:10:33;5.71;5.33;
41382;PMS5003;27971;53.902;9.118;2022-12-07T08:12:37;5.2;4.95;
41382;PMS5003;27971;53.902;9.118;2022-12-07T08:14:39;5.61;5.04;
41382;PMS5003;27971;53.902;9.118;2022-12-07T08:16:41;6.33;5.44;
41382;PMS5003;27971;53.902;9.118;2022-12-07T08:18:44;6.47;5.5;
41382;PMS5003;27971;53.902;9.118;2022-12-07T08:20:46;7.6;5.98;
41382;PMS5003;27971;53.902;9.118;2022-12-07T08:22:48;6.11;5.3;
41382;PMS5003;27971;53.902;9.118;2022-12-07T08:24:51;5.82;5.69;
41382;PMS5003;27971;53.902;9.118;2022-12-07T08:26:53;4.98;4.54;
41382;PMS5003;27971;53.902;9.118;2022-12-07T08:28:55;5.98;5.02;
41382;PMS5003;27971;53.902;9.118;2022-12-07T08:30:59;4.86;4.44;
41382;PMS5003;27971;53.902;9.118;2022-12-07T08:33:01;5.02;4.86;
41382;PMS5003;27971;53.902;9.118;2022-12-07T08:35:04;5.73;4.67;
41382;PMS5003;27971;53.902;9.118;2022-12-07T08:37:07;5.3;4.93;
41382;PMS5003;27971;53.902;9.118;2022-12-07T08:39:11;5.09;4.49;
41382;PMS5003;27971;53.902;9.118;2022-12-07T08:41:13;4.63;4.5;
41382;PMS5003;27971;53.902;9.118;2022-12-07T08:43:16;5.14;4.44;
41382;PMS5003;27971;53.902;9.118;2022-12-07T08:45:19;5.5;4.97;
41382;PMS5003;27971;53.902;9.118;2022-12-07T08:47:22;5.18;4.6;
41382;PMS5003;27971;53.902;9.118;2022-12-07T08:49:24;5.12;4.48;
41382;PMS5003;27971;53.902;9.118;2022-12-07T08:51:27;5.26;4.43;
41382;PMS5003;27971;53.902;9.118;2022-12-07T08:53:30;5.11;4.52;
41382;PMS5003;27971;53.902;9.118;2022-12-07T08:55:33;5.01;4.28;
41382;PMS5003;27971;53.902;9.118;2022-12-07T08:57:35;5.02;4.6;
41382;PMS5003;27971;53.902;9.118;2022-12-07T08:59:37;5.38;4.62;
41382;PMS5003;27971;53.902;9.118;2022-12-07T09:01:40;5.96;4.54;
41382;PMS5003;27971;53.902;9.118;2022-12-07T09:03:42;4.97;4.7;
41382;PMS5003;27971;53.902;9.118;2022-12-07T09:05:44;4.26;3.6;
41382;PMS5003;27971;53.902;9.118;2022-12-07T09:07:47;4.39;4.07;
41382;PMS5003;27971;53.902;9.118;2022-12-07T09:09:50;5.27;4.93;
41382;PMS5003;27971;53.902;9.118;2022-12-07T09:11:52;5.46;4.99;
41382;PMS5003;27971;53.902;9.118;2022-12-07T09:13:55;5.62;4.85;
41382;PMS5003;27971;53.902;9.118;2022-12-07T09:15:58;4.29;3.86;
41382;PMS5003;27971;53.902;9.118;2022-12-07T09:18:00;5.48;4.51;
41382;PMS5003;27971;53.902;9.118;2022-12-07T09:20:02;4.68;3.86;
41382;PMS5003;27971;53.902;9.118;2022-12-07T09:22:05;5.11;4.24;
41382;PMS5003;27971;53.902;9.118;2022-12-07T09:24:07;5.57;4.76;
41382;PMS5003;27971;53.902;9.118;2022-12-07T09:26:10;7.26;6.18;
41382;PMS5003;27971;53.902;9.118;2022-12-07T09:28:12;6.1;4.67;
41382;PMS5003;27971;53.902;9.118;2022-12-07T09:30:15;6.17;5.54;
41382;PMS5003;27971;53.902;9.118;2022-12-07T09:32:17;8.14;6.08;
41382;PMS5003;27971;53.902;9.118;2022-12-07T09:34:19;10.28;7.37;
41382;PMS5003;27971;53.902;9.118;2022-12-07T09:36:22;6.32;5.2;
41382;PMS5003;27971;53.902;9.118;2022-12-07T09:38:24;8.19;6.59;
41382;PMS5003;27971;53.902;9.118;2022-12-07T09:40:27;7.84;5.67;
41382;PMS5003;27971;53.902;9.118;2022-12-07T09:42:33;8.74;7.51;
41382;PMS5003;27971;53.902;9.118;2022-12-07T09:44:32;8.56;6.95;
41382;PMS5003;27971;53.902;9.118;2022-12-07T09:46:35;9.3;8.16;
41382;PMS5003;27971;53.902;9.118;2022-12-07T09:48:37;9.99;7.15;
41382;PMS5003;27971;53.902;9.118;2022-12-07T09:50:40;9.28;6.84;
41382;PMS5003;27971;53.902;9.118;2022-12-07T09:52:43;10.4;7.33;
41382;PMS5003;27971;53.902;9.118;2022-12-07T09:54:46;9.74;7.58;
41382;PMS5003;27971;53.902;9.118;2022-12-07T09:56:49;9.92;8.53;
41382;PMS5003;27971;53.902;9.118;2022-12-07T09:58:54;9.68;7.38;
41382;PMS5003;27971;53.902;9.118;2022-12-07T10:00:57;11.42;9.02;
41382;PMS5003;27971;53.902;9.118;2022-12-07T10:03:00;11.29;8.85;
41382;PMS5003;27971;53.902;9.118;2022-12-07T10:05:03;8.18;7.46;
41382;PMS5003;27971;53.902;9.118;2022-12-07T10:07:04;10.06;8.31;
41382;PMS5003;27971;53.902;9.118;2022-12-07T10:09:09;9.2;7.24;
41382;PMS5003;27971;53.902;9.118;2022-12-07T10:11:10;10.78;8.91;
41382;PMS5003;27971;53.902;9.118;2022-12-07T10:13:14;8.22;7.06;
41382;PMS5003;27971;53.902;9.118;2022-12-07T10:15:17;11.48;8.91;
41382;PMS5003;27971;53.902;9.118;2022-12-07T10:17:36;8.21;7.13;
41382;PMS5003;27971;53.902;9.118;2022-12-07T10:19:23;8.79;7.14;
41382;PMS5003;27971;53.902;9.118;2022-12-07T10:21:25;8.97;7.72;
41382;PMS5003;27971;53.902;9.118;2022-12-07T10:23:27;8.21;6.62;
41382;PMS5003;27971;53.902;9.118;2022-12-07T10:25:31;9.39;8.56;
41382;PMS5003;27971;53.902;9.118;2022-12-07T10:27:32;10.47;9.16;
41382;PMS5003;27971;53.902;9.118;2022-12-07T10:29:36;11.22;8.03;
41382;PMS5003;27971;53.902;9.118;2022-12-07T10:31:38;8.26;7.41;
41382;PMS5003;27971;53.902;9.118;2022-12-07T10:33:48;11.57;8.63;
41382;PMS5003;27971;53.902;9.118;2022-12-07T10:35:42;10.0;8.28;
41382;PMS5003;27971;53.902;9.118;2022-12-07T10:37:45;9.04;7.98;
41382;PMS5003;27971;53.902;9.118;2022-12-07T10:39:48;9.3;7.64;
41382;PMS5003;27971;53.902;9.118;2022-12-07T10:41:54;10.71;9.15;
41382;PMS5003;27971;53.902;9.118;2022-12-07T10:43:55;10.29;9.16;
41382;PMS5003;27971;53.902;9.118;2022-12-07T10:46:05;11.26;7.91;
41382;PMS5003;27971;53.902;9.118;2022-12-07T10:48:00;10.72;7.81;
41382;PMS5003;27971;53.902;9.118;2022-12-07T10:50:08;12.42;9.11;
41382;PMS5003;27971;53.902;9.118;2022-12-07T10:52:07;10.47;7.69;
41382;PMS5003;27971;53.902;9.118;2022-12-07T10:54:10;11.19;7.89;
41382;PMS5003;27971;53.902;9.118;2022-12-07T10:56:17;10.03;7.8;
41382;PMS5003;27971;53.902;9.118;2022-12-07T10:58:19;10.96;8.6;
41382;PMS5003;27971;53.902;9.118;2022-12-07T11:00:18;12.54;9.06;
41382;PMS5003;27971;53.902;9.118;2022-12-07T11:02:25;12.08;8.62;
41382;PMS5003;27971;53.902;9.118;2022-12-07T11:04:25;8.26;6.77;
41382;PMS5003;27971;53.902;9.118;2022-12-07T11:06:27;9.41;8.08;
41382;PMS5003;27971;53.902;9.118;2022-12-07T11:08:35;9.46;8.48;
41382;PMS5003;27971;53.902;9.118;2022-12-07T11:10:34;8.42;7.75;
41382;PMS5003;27971;53.902;9.118;2022-12-07T11:12:39;9.04;7.94;
41382;PMS5003;27971;53.902;9.118;2022-12-07T11:14:40;9.52;7.21;
41382;PMS5003;27971;53.902;9.118;2022-12-07T11:16:44;13.27;11.88;
41382;PMS5003;27971;53.902;9.118;2022-12-07T11:18:45;10.04;7.99;
41382;PMS5003;27971;53.902;9.118;2022-12-07T11:20:48;11.24;9.25;
41382;PMS5003;27971;53.902;9.118;2022-12-07T11:22:49;19.35;17.27;
41382;PMS5003;27971;53.902;9.118;2022-12-07T11:24:54;18.82;17.11;
41382;PMS5003;27971;53.902;9.118;2022-12-07T11:26:59;17.56;16.29;
41382;PMS5003;27971;53.902;9.118;2022-12-07T11:28:59;17.49;16.28;
41382;PMS5003;27971;53.902;9.118;2022-12-07T11:31:04;17.08;14.65;
41382;PMS5003;27971;53.902;9.118;2022-12-07T11:33:06;15.64;12.24;
41382;PMS5003;27971;53.902;9.118;2022-12-07T11:35:05;14.8;11.91;
41382;PMS5003;27971;53.902;9.118;2022-12-07T11:37:08;15.07;13.33;
41382;PMS5003;27971;53.902;9.118;2022-12-07T11:39:13;12.52;12.22;
41382;PMS5003;27971;53.902;9.118;2022-12-07T11:41:13;12.63;11.73;
41382;PMS5003;27971;53.902;9.118;2022-12-07T11:43:19;12.15;11.25;
41382;PMS5003;27971;53.902;9.118;2022-12-07T11:45:19;13.71;11.66;
41382;PMS5003;27971;53.902;9.118;2022-12-07T11:47:23;11.91;10.95;
41382;PMS5003;27971;53.902;9.118;2022-12-07T11:49:26;13.85;11.88;
41382;PMS5003;27971;53.902;9.118;2022-12-07T11:51:27;10.25;9.16;
41382;PMS5003;27971;53.902;9.118;2022-12-07T11:53:31;11.55;10.65;
41382;PMS5003;27971;53.902;9.118;2022-12-07T11:55:38;10.8;10.28;
41382;PMS5003;27971;53.902;9.118;2022-12-07T11:57:37;11.49;10.65;
41382;PMS5003;27971;53.902;9.118;2022-12-07T11:59:39;13.56;11.24;
41382;PMS5003;27971;53.902;9.118;2022-12-07T12:01:44;14.05;11.15;
41382;PMS5003;27971;53.902;9.118;2022-12-07T12:03:45;12.21;11.28;
41382;PMS5003;27971;53.902;9.118;2022-12-07T12:05:46;11.75;10.01;
41382;PMS5003;27971;53.902;9.118;2022-12-07T12:07:50;13.22;9.26;
41382;PMS5003;27971;53.902;9.118;2022-12-07T12:09:52;11.31;9.05;
41382;PMS5003;27971;53.902;9.118;2022-12-07T12:12:07;13.71;10.69;
41382;PMS5003;27971;53.902;9.118;2022-12-07T12:14:01;12.94;11.75;
41382;PMS5003;27971;53.902;9.118;2022-12-07T12:16:04;13.76;12.14;
41382;PMS5003;27971;53.902;9.118;2022-12-07T12:18:07;18.14;16.19;
41382;PMS5003;27971;53.902;9.118;2022-12-07T12:20:06;16.57;14.41;
41382;PMS5003;27971;53.902;9.118;2022-12-07T12:22:10;15.26;14.44;
41382;PMS5003;27971;53.902;9.118;2022-12-07T12:24:12;16.9;15.21;
41382;PMS5003;27971;53.902;9.118;2022-12-07T12:26:16;15.01;13.66;
41382;PMS5003;27971;53.902;9.118;2022-12-07T12:28:21;10.69;9.51;
41382;PMS5003;27971;53.902;9.118;2022-12-07T12:30:25;13.5;11.88;
41382;PMS5003;27971;53.902;9.118;2022-12-07T12:32:24;15.73;12.1;
41382;PMS5003;27971;53.902;9.118;2022-12-07T12:34:30;11.49;9.81;
41382;PMS5003;27971;53.902;9.118;2022-12-07T12:36:43;9.64;8.75;
41382;PMS5003;27971;53.902;9.118;2022-12-07T12:38:31;14.04;12.43;
41382;PMS5003;27971;53.902;9.118;2022-12-07T12:40:41;16.16;14.98;
41382;PMS5003;27971;53.902;9.118;2022-12-07T12:42:43;16.82;15.66;